Time;durP1;ratioP1;P1;durP2;ratioP2;P2;SDS_P1;SDS_P2;PMS_P1;PMS_P2;Temp;Humidity;BMP_temperature;BMP_pressure;BME280_temperature;BME280_humidity;BME280_pressure;Samples;Min_cycle;Max_cycle;Signal;HPM_P1;HPM_P2
2022/09/02 00:02:28;;;;;;;3.75;2.17;;;;;;;11.77;94.38;100462.66;10419244;28;20045;-67
2022/09/02 00:07:31;;;;;;;4.18;2.20;;;;;;;11.95;92.47;100462.13;10419008;28;20049;-67
2022/09/02 00:12:32;;;;;;;4.28;1.95;;;;;;;11.73;93.69;100456.66;10419124;28;20075;-67
2022/09/02 00:17:34;;;;;;;3.70;2.40;;;;;;;11.80;93.45;100452.03;10468661;22;20068;-69
2022/09/02 00:22:36;;;;;;;3.25;2.40;;;;;;;12.04;91.19;100448.72;10461670;28;20083;-69
2022/09/02 00:27:38;;;;;;;2.72;1.90;;;;;;;12.00;90.72;100441.81;10462089;28;20120;-69
2022/09/02 00:32:39;;;;;;;3.50;1.70;;;;;;;11.62;93.55;100443.78;10444432;28;20040;-69
2022/09/02 00:37:41;;;;;;;3.63;2.55;;;;;;;11.41;95.60;100449.66;10444246;28;20139;-69
2022/09/02 00:42:43;;;;;;;3.38;2.15;;;;;;;11.33;96.05;100446.38;10444870;28;20095;-69
2022/09/02 00:47:46;;;;;;;3.65;3.03;;;;;;;11.46;95.33;100447.75;10462047;28;20418;-69
2022/09/02 00:52:57;;;;;;;6.03;1.80;;;;;;;11.74;92.02;100446.97;10462298;28;20044;-68
2022/09/02 00:58:05;;;;;;;3.83;2.63;;;;;;;11.55;92.72;100441.38;10462495;28;20041;-69
2022/09/02 01:03:14;;;;;;;5.00;2.65;;;;;;;11.17;96.17;100450.38;10462856;28;20037;-69
2022/09/02 01:08:33;;;;;;;4.20;2.55;;;;;;;11.09;96.91;100447.94;10462565;28;20067;-69
2022/09/02 01:13:41;;;;;;;4.50;2.70;;;;;;;11.39;94.71;100440.97;10445608;28;20512;-69
2022/09/02 01:18:47;;;;;;;4.03;2.88;;;;;;;11.18;96.47;100442.41;10462222;28;20049;-69
2022/09/02 01:23:51;;;;;;;4.70;2.72;;;;;;;11.36;94.42;100443.69;10460969;28;20074;-69
2022/09/02 01:28:53;;;;;;;4.00;3.00;;;;;;;11.14;94.50;100446.03;10442039;28;20128;-69
2022/09/02 01:33:55;;;;;;;3.45;3.15;;;;;;;11.09;96.12;100437.41;10442278;28;20055;-70
2022/09/02 01:38:58;;;;;;;4.68;2.97;;;;;;;11.42;92.78;100443.53;10442568;28;20044;-69
2022/09/02 01:44:01;;;;;;;4.10;3.45;;;;;;;11.07;95.31;100445.38;10441569;28;20051;-70
2022/09/02 01:49:04;;;;;;;4.88;3.33;;;;;;;10.93;97.24;100447.47;10441810;28;20044;-69
2022/09/02 01:54:06;;;;;;;4.68;3.53;;;;;;;11.07;95.38;100444.50;10459397;28;20075;-69
2022/09/02 01:59:10;;;;;;;4.45;3.72;;;;;;;11.14;94.33;100442.56;10440225;28;20053;-70
2022/09/02 02:04:12;;;;;;;4.28;3.13;;;;;;;11.17;93.16;100434.59;10440117;28;20041;-70
2022/09/02 02:09:16;;;;;;;4.30;2.90;;;;;;;10.77;96.40;100430.41;10458333;28;20521;-70
2022/09/02 02:14:19;;;;;;;3.30;2.60;;;;;;;10.69;96.77;100425.34;10458163;28;20033;-70
2022/09/02 02:19:23;;;;;;;3.38;2.60;;;;;;;10.91;93.97;100427.41;10440389;28;20422;-69
2022/09/02 02:24:25;;;;;;;3.95;3.03;;;;;;;10.75;95.44;100424.31;10458661;28;20116;-70
2022/09/02 02:29:28;;;;;;;3.47;2.60;;;;;;;10.61;98.00;100432.53;10458434;28;20043;-69
2022/09/02 02:34:30;;;;;;;4.35;3.22;;;;;;;10.43;98.86;100417.25;10458335;28;20076;-70
2022/09/02 02:39:32;;;;;;;5.88;2.85;;;;;;;10.65;98.08;100421.06;10439465;28;20045;-69
2022/09/02 02:44:35;;;;;;;5.30;2.75;;;;;;;10.63;97.42;100419.38;10457047;28;20090;-70
2022/09/02 02:49:39;;;;;;;3.83;2.40;;;;;;;10.76;96.31;100415.53;10422578;28;20053;-68
2022/09/02 02:54:41;;;;;;;3.53;2.80;;;;;;;10.73;95.60;100423.50;10440142;28;20052;-69
2022/09/02 02:59:43;;;;;;;3.90;2.58;;;;;;;10.53;96.91;100411.69;10439310;28;20575;-69
2022/09/02 03:04:47;;;;;;;2.83;2.35;;;;;;;10.35;97.23;100412.16;10441063;28;20072;-69
2022/09/02 03:09:49;;;;;;;2.42;1.88;;;;;;;10.28;98.39;100421.13;10460285;28;20448;-69
2022/09/02 03:14:51;;;;;;;4.22;2.92;;;;;;;10.39;98.00;100416.44;10446605;28;20041;-70
2022/09/02 03:19:53;;;;;;;5.10;2.50;;;;;;;10.32;97.84;100418.38;10430668;28;20049;-70
2022/09/02 03:24:55;;;;;;;4.40;3.38;;;;;;;10.35;98.05;100417.44;10445654;28;20056;-69
2022/09/02 03:29:58;;;;;;;5.60;4.00;;;;;;;10.47;96.20;100416.28;10463402;28;20542;-69
2022/09/02 03:35:01;;;;;;;6.50;3.90;;;;;;;10.74;94.30;100418.19;10428869;28;20503;-69
2022/09/02 03:40:07;;;;;;;6.30;3.80;;;;;;;10.49;94.85;100417.06;10445763;28;20049;-70
2022/09/02 03:45:10;;;;;;;3.70;3.28;;;;;;;10.24;96.59;100417.69;10445847;28;20410;-70
2022/09/02 03:50:11;;;;;;;8.65;3.42;;;;;;;10.21;96.32;100424.75;10444907;28;20136;-69
2022/09/02 03:55:13;;;;;;;4.55;3.63;;;;;;;10.16;96.68;100408.25;10428134;28;20045;-70
2022/09/02 04:00:18;;;;;;;5.50;4.28;;;;;;;10.39;95.22;100418.22;10444253;28;20041;-70
2022/09/02 04:05:22;;;;;;;3.55;3.25;;;;;;;10.46;94.60;100409.28;10444241;28;20045;-69
2022/09/02 04:10:27;;;;;;;8.40;3.78;;;;;;;10.42;94.51;100408.50;10444125;28;20075;-69
2022/09/02 04:15:29;;;;;;;3.42;3.10;;;;;;;10.11;95.43;100409.22;10461096;28;20045;-71
2022/09/02 04:20:31;;;;;;;5.38;4.22;;;;;;;9.97;98.21;100403.44;10442470;28;20052;-69
2022/09/02 04:25:36;;;;;;;5.20;4.28;;;;;;;9.96;98.78;100414.84;10442466;28;20506;-69
2022/09/02 04:30:40;;;;;;;6.15;5.55;;;;;;;9.78;99.39;100416.13;10442958;28;20049;-70
2022/09/02 04:35:45;;;;;;;6.03;5.43;;;;;;;9.85;99.91;100411.59;10443412;28;20079;-70
2022/09/02 04:40:49;;;;;;;6.17;5.40;;;;;;;9.86;99.34;100411.53;10442723;28;20080;-69
2022/09/02 04:45:52;;;;;;;11.00;6.40;;;;;;;9.81;99.67;100413.41;10442113;28;20052;-69
2022/09/02 04:50:54;;;;;;;11.20;6.65;;;;;;;9.86;100.00;100418.56;10442451;28;20060;-69
2022/09/02 04:55:56;;;;;;;6.43;5.00;;;;;;;9.92;100.00;100418.44;10441695;28;20210;-69
2022/09/02 05:01:05;;;;;;;5.05;4.30;;;;;;;9.98;98.87;100417.44;10441982;28;20056;-70
2022/09/02 05:06:11;;;;;;;5.60;5.03;;;;;;;10.00;98.78;100426.13;10441902;28;20041;-70
2022/09/02 05:11:17;;;;;;;6.50;4.20;;;;;;;10.02;99.04;100422.56;10441202;28;20045;-69
2022/09/02 05:16:35;;;;;;;5.30;4.70;;;;;;;10.10;99.40;100425.88;10441405;28;20041;-69
2022/09/02 05:21:42;;;;;;;5.10;4.15;;;;;;;10.20;98.26;100423.91;10441268;28;20049;-70
2022/09/02 05:26:49;;;;;;;5.22;4.28;;;;;;;10.30;98.20;100419.31;10440771;28;20149;-70
2022/09/02 05:31:51;;;;;;;8.07;4.60;;;;;;;10.40;97.46;100420.81;10457954;28;20040;-70
2022/09/02 05:36:56;;;;;;;4.13;3.78;;;;;;;10.66;96.75;100411.41;10440279;28;20037;-69
2022/09/02 05:42:02;;;;;;;4.70;2.97;;;;;;;10.91;95.04;100407.22;10440524;28;20208;-69
2022/09/02 05:47:05;;;;;;;2.30;2.00;;;;;;;11.26;91.49;100408.88;10439258;28;20040;-69
2022/09/02 05:52:10;;;;;;;2.35;2.15;;;;;;;11.19;92.20;100403.81;10440276;28;20501;-70
2022/09/02 05:57:24;;;;;;;2.30;1.88;;;;;;;11.26;92.24;100405.38;10439946;28;20124;-69
2022/09/02 06:02:38;;;;;;;2.13;1.50;;;;;;;12.19;87.76;100410.47;10439446;28;20084;-69
2022/09/02 06:07:41;;;;;;;5.18;1.80;;;;;;;13.56;79.56;100401.25;10439240;28;20041;-69
2022/09/02 06:12:43;;;;;;;2.63;1.42;;;;;;;14.43;74.34;100400.38;10439526;28;20049;-70
2022/09/02 06:17:46;;;;;;;4.57;1.75;;;;;;;14.22;73.13;100406.59;10440266;28;20041;-70
2022/09/02 06:22:48;;;;;;;5.05;1.98;;;;;;;13.83;74.87;100404.63;10457120;28;20033;-69
2022/09/02 06:27:51;;;;;;;3.17;2.05;;;;;;;14.20;75.04;100403.13;10438580;28;20041;-69
2022/09/02 06:32:53;;;;;;;3.47;1.80;;;;;;;14.42;74.46;100403.13;10440576;28;20048;-69
2022/09/02 06:37:57;;;;;;;2.03;1.65;;;;;;;14.67;71.28;100401.19;10456849;28;20037;-69
2022/09/02 06:43:00;;;;;;;7.13;2.70;;;;;;;14.21;75.09;100399.56;10439126;28;20049;-69
2022/09/02 06:48:07;;;;;;;4.35;2.08;;;;;;;14.37;75.03;100398.03;10446417;28;20043;-69
2022/09/02 06:53:13;;;;;;;2.30;1.42;;;;;;;14.56;74.15;100396.34;10430602;28;20052;-70
2022/09/02 06:58:15;;;;;;;5.38;2.30;;;;;;;14.78;72.08;100398.94;10446492;28;20414;-70
2022/09/02 07:08:40;;;;;;;5.03;1.73;;;;;;;15.17;70.75;100407.84;10445726;28;20057;-70
2022/09/02 07:13:43;;;;;;;2.60;1.48;;;;;;;15.24;71.28;100406.66;10445604;28;20383;-70
2022/09/02 07:18:45;;;;;;;2.42;1.27;;;;;;;15.41;69.99;100403.25;10458861;28;20041;-70
2022/09/02 07:23:48;;;;;;;3.50;1.30;;;;;;;15.40;69.40;100407.66;10452034;28;20490;-70
2022/09/02 07:28:53;;;;;;;4.00;1.00;;;;;;;15.45;68.79;100408.34;10485642;28;20506;-70
2022/09/02 07:33:57;;;;;;;4.03;1.23;;;;;;;15.97;65.72;100415.63;10486264;28;20040;-71
2022/09/02 07:39:02;;;;;;;2.53;1.10;;;;;;;15.85;65.37;100414.44;10487068;28;20044;-70
2022/09/02 07:44:05;;;;;;;3.15;1.08;;;;;;;16.29;64.31;100412.28;10503498;28;20434;-70
2022/09/02 07:49:10;;;;;;;6.50;1.27;;;;;;;16.47;61.68;100421.13;10485606;28;20048;-70
2022/09/02 07:54:12;;;;;;;3.13;0.80;;;;;;;16.65;60.66;100422.84;10485322;28;20049;-70
2022/09/02 07:59:15;;;;;;;2.95;0.95;;;;;;;16.88;60.84;100418.19;10485653;28;20048;-70
2022/09/02 08:04:20;;;;;;;2.15;0.80;;;;;;;17.02;59.81;100407.72;10486257;28;20564;-70
2022/09/02 08:09:23;;;;;;;1.20;0.60;;;;;;;17.34;60.95;100413.97;10484729;28;20048;-70
2022/09/02 08:14:27;;;;;;;1.13;0.68;;;;;;;17.63;58.19;100412.41;10502432;28;20067;-69
2022/09/02 08:19:29;;;;;;;1.70;0.70;;;;;;;17.81;55.33;100405.22;10502595;28;20078;-69
2022/09/02 08:24:31;;;;;;;1.58;0.60;;;;;;;18.09;55.00;100403.66;10501421;28;20036;-69
2022/09/02 08:29:34;;;;;;;0.77;0.40;;;;;;;18.18;56.01;100404.94;10463179;28;20079;-69
2022/09/02 08:34:35;;;;;;;1.83;0.70;;;;;;;18.67;53.13;100409.13;10461020;28;20454;-69
2022/09/02 08:39:37;;;;;;;2.90;0.60;;;;;;;18.87;53.74;100405.31;10461086;28;20049;-70
2022/09/02 08:44:39;;;;;;;1.10;0.77;;;;;;;19.18;50.14;100395.44;10460101;28;20049;-70
2022/09/02 08:49:47;;;;;;;1.20;0.40;;;;;;;19.03;49.93;100391.03;10442489;28;20048;-69
2022/09/02 08:54:56;;;;;;;2.10;0.40;;;;;;;19.49;48.46;100383.72;10443690;28;20049;-69
2022/09/02 09:00:01;;;;;;;0.75;0.32;;;;;;;19.77;47.35;100382.00;10462050;28;20047;-69
2022/09/02 09:05:37;;;;;;;0.43;0.32;;;;;;;19.78;48.77;100383.69;10460877;28;20037;-69
2022/09/02 09:10:39;;;;;;;1.00;0.30;;;;;;;20.08;45.95;100378.19;10461241;28;20406;-70
2022/09/02 09:15:54;;;;;;;1.35;0.50;;;;;;;20.50;44.85;100371.84;10461928;28;20087;-69
2022/09/02 09:20:56;;;;;;;1.33;0.30;;;;;;;20.52;42.19;100364.56;10460940;28;20045;-68
2022/09/02 09:26:12;;;;;;;0.95;0.32;;;;;;;20.47;43.18;100368.47;10460819;28;20056;-69
2022/09/02 09:31:18;;;;;;;;;;;;;;;20.97;40.72;100366.84;10461661;28;20044;-69
2022/09/02 09:36:40;;;;;;;4.05;0.30;;;;;;;20.58;41.01;100364.13;10459694;28;19921;-69
2022/09/02 09:41:42;;;;;;;1.45;0.20;;;;;;;21.19;41.87;100355.50;10459004;28;20120;-69
2022/09/02 09:46:44;;;;;;;0.43;0.20;;;;;;;21.90;38.62;100346.78;10458697;28;20036;-69
2022/09/02 09:51:55;;;;;;;0.73;0.30;;;;;;;22.55;39.29;100349.03;10458793;28;20045;-69
2022/09/02 09:57:14;;;;;;;1.13;0.20;;;;;;;22.85;35.98;100351.19;10458903;28;20041;-69
2022/09/02 10:02:21;;;;;;;1.95;0.30;;;;;;;23.53;35.50;100340.47;10441259;28;20056;-69
2022/09/02 10:07:36;;;;;;;;;;;;;;;23.36;35.23;100337.31;10458939;28;20056;-69
2022/09/02 10:12:38;;;;;;;0.50;0.20;;;;;;;22.76;35.16;100327.78;10459440;28;19921;-69
2022/09/02 10:18:04;;;;;;;0.50;0.30;;;;;;;21.82;36.67;100325.09;10457962;28;20499;-69
2022/09/02 10:23:31;;;;;;;0.40;0.30;;;;;;;22.02;38.21;100327.16;10467887;28;20048;-69
2022/09/02 10:29:09;;;;;;;0.55;0.20;;;;;;;22.17;36.23;100322.47;10465775;28;20379;-70
2022/09/02 10:34:17;;;;;;;1.30;0.40;;;;;;;21.63;37.41;100320.25;10448089;28;20041;-70
2022/09/02 10:39:27;;;;;;;0.35;0.30;;;;;;;21.59;39.23;100313.41;10449083;28;20048;-70
2022/09/02 10:44:33;;;;;;;1.00;0.50;;;;;;;21.20;39.43;100314.44;10465984;28;20037;-69
2022/09/02 10:49:41;;;;;;;;;;;;;;;21.51;39.09;100313.97;10447533;28;20041;-69
2022/09/02 10:55:12;;;;;;;0.57;0.47;;;;;;;21.66;38.64;100310.19;10464639;28;19920;-69
2022/09/02 11:00:17;;;;;;;1.65;0.25;;;;;;;21.35;39.25;100306.22;10465631;28;20044;-69
2022/09/02 11:05:24;;;;;;;0.98;0.40;;;;;;;21.05;38.47;100298.53;10465951;28;20508;-70
2022/09/02 11:10:39;;;;;;;1.10;0.25;;;;;;;20.91;39.41;100298.66;10466137;28;20072;-70
2022/09/02 11:15:56;;;;;;;1.40;0.30;;;;;;;20.95;40.05;100294.81;10465839;28;20437;-70
2022/09/02 11:21:23;;;;;;;2.25;0.35;;;;;;;20.91;40.63;100293.31;10465023;28;20052;-68
2022/09/02 11:26:40;;;;;;;1.67;0.68;;;;;;;20.98;41.09;100289.22;10447613;28;20185;-68
2022/09/02 11:32:01;;;;;;;1.95;0.30;;;;;;;20.68;40.28;100292.25;10465184;28;20045;-68
2022/09/02 11:37:06;;;;;;;0.80;0.40;;;;;;;20.90;40.77;100291.63;10446843;28;20506;-69
2022/09/02 11:42:34;;;;;;;1.05;0.30;;;;;;;21.42;41.69;100287.88;10464137;28;20039;-68
2022/09/02 11:47:50;;;;;;;0.30;0.30;;;;;;;21.97;37.93;100288.31;10462834;28;20056;-69
2022/09/02 11:53:11;;;;;;;0.75;0.40;;;;;;;21.78;38.98;100291.50;10463303;28;20071;-70
2022/09/02 11:58:33;;;;;;;0.88;0.30;;;;;;;21.51;39.71;100281.00;10446458;28;20467;-69
2022/09/02 12:03:35;;;;;;;4.22;0.30;;;;;;;21.34;40.25;100284.94;10464336;28;20047;-69
2022/09/02 12:09:00;;;;;;;0.77;0.30;;;;;;;21.13;39.73;100282.81;10464180;28;20091;-69
2022/09/02 12:14:03;;;;;;;2.73;0.60;;;;;;;21.06;40.79;100280.66;10463698;28;20041;-70
2022/09/02 12:19:17;;;;;;;0.68;0.40;;;;;;;21.06;40.00;100268.16;10463677;28;20041;-69
2022/09/02 12:24:20;;;;;;;3.88;0.30;;;;;;;21.10;38.67;100260.78;10464738;28;20037;-70
2022/09/02 12:29:23;;;;;;;0.85;0.40;;;;;;;20.89;39.82;100250.69;10464373;28;20041;-69
2022/09/02 12:34:27;;;;;;;1.10;0.40;;;;;;;20.81;39.58;100245.03;10462848;28;20060;-69
2022/09/02 12:39:33;;;;;;;1.60;0.22;;;;;;;20.71;39.45;100243.09;10477906;22;20037;-73
2022/09/02 12:44:59;;;;;;;0.25;0.22;;;;;;;21.05;38.73;100237.06;10460343;28;20047;-72
2022/09/02 12:50:31;;;;;;;0.60;0.30;;;;;;;21.72;38.39;100225.91;10441980;28;20045;-74
2022/09/02 12:55:34;;;;;;;0.88;0.28;;;;;;;22.10;36.77;100220.34;10458458;28;20088;-73
2022/09/02 13:00:45;;;;;;;0.50;0.20;;;;;;;22.19;36.61;100221.50;10442341;28;20120;-73
2022/09/02 13:05:57;;;;;;;0.73;0.28;;;;;;;22.50;36.17;100209.25;10441038;28;20084;-72
2022/09/02 13:11:34;;;;;;;0.50;0.40;;;;;;;22.55;35.39;100211.56;10459103;28;20483;-73
2022/09/02 13:17:10;;;;;;;1.13;0.40;;;;;;;21.96;36.62;100206.28;10440825;28;20131;-72
2022/09/02 13:23:02;;;;;;;0.68;0.20;;;;;;;21.34;37.93;100210.06;10459200;28;20049;-73
2022/09/02 13:28:33;;;;;;;2.72;0.30;;;;;;;20.85;38.58;100209.13;10440217;28;20417;-70
2022/09/02 13:33:35;;;;;;;1.08;0.50;;;;;;;20.68;39.19;100205.94;10429856;28;20147;-71
2022/09/02 13:38:42;;;;;;;0.80;0.40;;;;;;;20.63;39.13;100207.13;10459072;28;20111;-71
2022/09/02 13:43:44;;;;;;;3.03;0.50;;;;;;;20.66;39.50;100200.69;10458595;28;20136;-71
2022/09/02 13:48:46;;;;;;;1.75;0.30;;;;;;;20.66;40.31;100198.88;10458930;28;20143;-71
2022/09/02 13:53:49;;;;;;;0.35;0.30;;;;;;;20.63;39.52;100192.91;10457378;28;20065;-71
2022/09/02 13:59:11;;;;;;;0.30;0.30;;;;;;;20.65;39.10;100188.31;10457875;28;20049;-72
2022/09/02 14:04:16;;;;;;;0.60;0.30;;;;;;;20.55;40.32;100179.25;10439415;28;20077;-72
2022/09/02 14:09:23;;;;;;;0.77;0.30;;;;;;;20.41;39.42;100172.19;10440694;28;20045;-73
2022/09/02 14:14:25;;;;;;;1.33;0.60;;;;;;;20.41;40.20;100178.38;10457935;28;20044;-73
2022/09/02 14:19:27;;;;;;;1.17;0.50;;;;;;;20.40;38.60;100167.78;10458307;28;20048;-72
2022/09/02 14:24:38;;;;;;;0.45;0.20;;;;;;;20.89;37.80;100159.84;10457735;28;20454;-74
2022/09/02 14:29:43;;;;;;;0.40;0.30;;;;;;;21.02;38.10;100161.59;10459886;28;20474;-72
2022/09/02 14:34:47;;;;;;;1.13;0.40;;;;;;;21.35;37.28;100163.63;10457199;28;20063;-71
2022/09/02 14:39:59;;;;;;;1.02;0.40;;;;;;;21.12;37.97;100151.94;10456466;28;20049;-72
2022/09/02 14:45:04;;;;;;;0.22;0.20;;;;;;;21.21;37.98;100151.28;10456713;28;20497;-72
2022/09/02 14:50:14;;;;;;;0.98;0.47;;;;;;;21.56;37.73;100156.69;10467415;28;20036;-70
2022/09/02 14:55:46;;;;;;;1.40;0.32;;;;;;;21.45;36.94;100155.78;10481971;28;20110;-71
2022/09/02 15:00:51;;;;;;;1.55;0.50;;;;;;;21.24;39.15;100159.03;10465574;28;20044;-72
2022/09/02 15:05:52;;;;;;;0.57;0.40;;;;;;;21.30;38.32;100152.41;10464300;28;20040;-72
2022/09/02 15:10:58;;;;;;;0.30;0.30;;;;;;;21.13;38.14;100150.97;10481180;28;20163;-71
2022/09/02 15:16:00;;;;;;;0.50;0.30;;;;;;;20.97;38.40;100156.59;10499070;28;20116;-72
2022/09/02 15:21:04;;;;;;;1.60;0.50;;;;;;;20.62;39.16;100154.63;10481146;28;20052;-71
2022/09/02 15:26:07;;;;;;;1.63;0.63;;;;;;;20.45;40.85;100152.28;10504131;28;20051;-71
2022/09/02 15:31:08;;;;;;;1.15;0.50;;;;;;;20.39;40.45;100153.56;10486354;28;20045;-71
2022/09/02 15:36:12;;;;;;;1.60;0.60;;;;;;;20.28;41.63;100152.66;10505711;28;20036;-72
2022/09/02 15:41:17;;;;;;;0.70;0.32;;;;;;;20.41;41.27;100149.00;10485776;28;20460;-71
2022/09/02 15:46:27;;;;;;;0.93;0.75;;;;;;;20.56;40.65;100139.06;10503265;28;20044;-72
2022/09/02 15:51:29;;;;;;;0.65;0.50;;;;;;;20.63;40.48;100140.34;10503665;28;20037;-71
2022/09/02 15:56:33;;;;;;;0.40;0.30;;;;;;;20.66;40.10;100132.09;10476048;28;20047;-74
2022/09/02 16:01:38;;;;;;;1.60;0.40;;;;;;;20.41;40.25;100145.47;10444571;28;20490;-73
2022/09/02 16:06:43;;;;;;;1.45;0.35;;;;;;;20.65;39.42;100140.22;10446060;28;20048;-73
2022/09/02 16:11:48;;;;;;;0.68;0.40;;;;;;;20.46;40.12;100131.81;10469430;28;20160;-72
2022/09/02 16:16:54;;;;;;;2.63;0.73;;;;;;;20.60;40.39;100123.69;10466697;28;20364;-72
2022/09/02 16:21:56;;;;;;;;;;;;;;;20.55;41.06;100128.50;10470132;28;20491;-71
2022/09/02 16:26:58;;;;;;;1.10;0.65;;;;;;;20.11;40.65;100124.47;10462475;28;20042;-73
2022/09/02 16:32:00;;;;;;;0.68;0.40;;;;;;;19.90;41.16;100126.78;10443742;28;20498;-72
2022/09/02 16:37:21;;;;;;;1.20;0.60;;;;;;;19.69;41.87;100125.59;10460844;28;20048;-72
2022/09/02 16:42:23;;;;;;;0.95;0.40;;;;;;;19.60;42.12;100111.91;10462320;28;20045;-72
2022/09/02 16:47:25;;;;;;;2.15;0.82;;;;;;;19.65;41.80;100109.78;10443483;28;20041;-72
2022/09/02 16:52:28;;;;;;;0.57;0.40;;;;;;;19.55;41.34;100113.16;10461364;28;20100;-72
2022/09/02 16:57:31;;;;;;;0.85;0.65;;;;;;;19.30;42.34;100104.19;10443552;28;20456;-72
2022/09/02 17:02:33;;;;;;;0.88;0.70;;;;;;;19.31;42.97;100111.22;10464250;28;20104;-72
2022/09/02 17:07:35;;;;;;;1.05;0.70;;;;;;;19.37;42.66;100104.59;10468486;28;20044;-72
2022/09/02 17:12:37;;;;;;;1.27;0.73;;;;;;;19.06;43.93;100090.66;10465860;28;20068;-71
2022/09/02 17:17:43;;;;;;;1.05;0.70;;;;;;;19.12;43.40;100097.38;10466279;28;20043;-72
2022/09/02 17:22:45;;;;;;;1.05;0.80;;;;;;;19.23;42.32;100102.88;10464746;28;20045;-71
2022/09/02 17:27:47;;;;;;;1.25;0.80;;;;;;;19.23;41.80;100105.53;10463717;28;20056;-71
2022/09/02 17:32:50;;;;;;;1.92;0.98;;;;;;;19.12;41.31;100095.59;10467073;28;20447;-71
2022/09/02 17:37:57;;;;;;;0.95;0.55;;;;;;;19.13;41.15;100102.63;10465242;28;20120;-72
2022/09/02 17:42:59;;;;;;;1.33;0.50;;;;;;;19.00;41.22;100101.72;10441769;28;20045;-72
2022/09/02 17:48:01;;;;;;;2.50;0.70;;;;;;;18.92;41.11;100101.38;10462826;28;20044;-71
2022/09/02 17:53:24;;;;;;;0.65;0.60;;;;;;;18.83;41.81;100109.97;10468240;28;20045;-72
2022/09/02 17:58:36;;;;;;;2.10;0.80;;;;;;;18.51;43.44;100110.19;10469480;28;20101;-71
2022/09/02 18:04:17;;;;;;;1.83;0.90;;;;;;;18.63;41.75;100114.69;10457227;28;20096;-74
2022/09/02 18:09:22;;;;;;;0.82;0.68;;;;;;;18.56;41.82;100126.72;10487305;28;20036;-73
2022/09/02 18:14:37;;;;;;;0.90;0.70;;;;;;;18.43;42.80;100123.13;10510092;28;20048;-74
2022/09/02 18:19:55;;;;;;;4.10;0.50;;;;;;;18.41;42.38;100125.00;10510289;28;20048;-73
2022/09/02 18:25:17;;;;;;;0.88;0.60;;;;;;;18.34;42.59;100132.53;10506267;28;20124;-73
2022/09/02 18:30:26;;;;;;;2.25;0.80;;;;;;;18.27;42.47;100138.31;10507803;28;20064;-72
2022/09/02 18:35:36;;;;;;;1.70;0.50;;;;;;;18.15;43.50;100134.63;10501742;28;20119;-73
2022/09/02 18:41:01;;;;;;;1.45;0.60;;;;;;;18.16;43.68;100136.34;10489945;22;20416;-70
2022/09/02 18:46:04;;;;;;;1.60;1.10;;;;;;;18.06;43.93;100143.16;10450364;28;20047;-71
2022/09/02 18:51:12;;;;;;;1.95;0.85;;;;;;;18.05;44.32;100144.09;10507245;28;20044;-71
2022/09/02 18:56:19;;;;;;;1.75;0.90;;;;;;;18.06;44.22;100149.34;10543516;28;20102;-71
2022/09/02 19:01:24;;;;;;;2.80;0.88;;;;;;;17.96;44.31;100137.53;10549574;28;20146;-71
2022/09/02 19:06:33;;;;;;;0.80;0.80;;;;;;;17.90;44.41;100138.78;10529615;28;20036;-70
2022/09/02 19:11:37;;;;;;;0.90;0.75;;;;;;;17.74;45.23;100137.97;10549365;28;20408;-72
2022/09/02 19:16:39;;;;;;;1.50;0.80;;;;;;;17.90;45.43;100151.22;10550061;28;20040;-71
2022/09/02 19:21:53;;;;;;;0.80;0.63;;;;;;;17.58;46.14;100148.66;10529570;28;20109;-70
2022/09/02 19:27:00;;;;;;;1.23;0.80;;;;;;;17.79;45.67;100151.84;10547794;28;20043;-71
2022/09/02 19:32:03;;;;;;;1.10;0.95;;;;;;;17.64;46.08;100147.41;10547877;28;20110;-70
2022/09/02 19:37:05;;;;;;;1.15;0.70;;;;;;;17.57;46.34;100146.91;10546686;28;20048;-71
2022/09/02 19:42:08;;;;;;;1.77;1.00;;;;;;;17.39;46.89;100145.34;10550570;28;20082;-71
2022/09/02 19:47:11;;;;;;;1.58;1.05;;;;;;;17.18;48.03;100147.44;10548265;28;20043;-71
2022/09/02 19:52:44;;;;;;;1.63;1.08;;;;;;;16.99;49.14;100149.41;10547730;28;20058;-71
2022/09/02 19:57:46;;;;;;;1.65;1.42;;;;;;;16.86;49.81;100150.09;10528674;28;20119;-71
2022/09/02 20:02:49;;;;;;;3.55;1.08;;;;;;;16.75;50.88;100152.50;10527602;28;20588;-71
2022/09/02 20:07:52;;;;;;;2.35;1.40;;;;;;;16.89;50.66;100152.59;10545136;28;20068;-71
2022/09/02 20:12:54;;;;;;;1.73;1.17;;;;;;;16.75;50.74;100155.16;10546180;28;20051;-70
2022/09/02 20:18:14;;;;;;;1.95;1.27;;;;;;;16.57;51.57;100151.69;10544906;28;20445;-71
2022/09/02 20:23:18;;;;;;;1.75;1.20;;;;;;;16.63;51.48;100148.69;10544771;28;20044;-71
2022/09/02 20:28:29;;;;;;;2.92;2.50;;;;;;;16.63;51.50;100161.09;10544908;28;20040;-71
2022/09/02 20:33:44;;;;;;;3.47;2.13;;;;;;;16.48;52.33;100154.84;10545387;28;20047;-71
2022/09/02 20:39:05;;;;;;;2.33;2.00;;;;;;;16.41;52.92;100156.09;10528211;28;20082;-70
2022/09/02 20:44:34;;;;;;;2.28;1.60;;;;;;;16.37;53.77;100159.88;10544144;28;20483;-70
2022/09/02 20:50:23;;;;;;;1.45;1.27;;;;;;;16.17;53.55;100166.25;10544605;28;20072;-71
2022/09/02 20:55:34;;;;;;;2.22;1.33;;;;;;;16.07;54.50;100162.34;10534103;28;20425;-70
2022/09/02 21:00:36;;;;;;;0.90;0.90;;;;;;;16.06;53.97;100166.78;10523913;28;20044;-71
2022/09/02 21:05:42;;;;;;;1.98;1.13;;;;;;;16.43;53.47;100170.16;10524861;28;20036;-71
2022/09/02 21:10:50;;;;;;;3.05;1.17;;;;;;;16.55;53.02;100171.28;10543038;28;20481;-70
2022/09/02 21:15:57;;;;;;;3.03;1.17;;;;;;;16.28;53.70;100177.13;10542956;28;20071;-70
2022/09/02 21:21:09;;;;;;;2.40;1.10;;;;;;;16.20;54.33;100181.13;10542954;28;20044;-70
2022/09/02 21:26:34;;;;;;;1.27;1.10;;;;;;;15.95;55.23;100177.13;10543237;28;20051;-70
2022/09/02 21:32:03;;;;;;;2.05;1.30;;;;;;;15.93;55.85;100170.16;10542814;28;20500;-71
2022/09/02 21:37:08;;;;;;;4.82;1.67;;;;;;;16.06;56.40;100179.19;10523621;28;20067;-71
2022/09/02 21:42:21;;;;;;;4.03;1.60;;;;;;;15.97;57.04;100187.63;10541660;28;20044;-70
2022/09/02 21:47:34;;;;;;;3.38;1.77;;;;;;;15.94;57.00;100179.81;10542876;28;20032;-70
2022/09/02 21:52:55;;;;;;;2.15;1.35;;;;;;;15.53;58.77;100186.25;10543129;28;20497;-72
2022/09/02 21:58:28;;;;;;;4.65;1.55;;;;;;;15.34;59.54;100181.00;10542103;28;20456;-71
2022/09/02 22:03:41;;;;;;;1.88;1.45;;;;;;;15.16;61.01;100181.06;10540874;28;20123;-71
2022/09/02 22:08:45;;;;;;;2.10;1.25;;;;;;;15.35;60.91;100187.16;10542084;28;20036;-71
2022/09/02 22:13:47;;;;;;;1.25;1.10;;;;;;;14.97;61.97;100183.75;10539393;28;20097;-71
2022/09/02 22:19:01;;;;;;;2.53;1.20;;;;;;;14.73;62.98;100185.72;10540697;28;20036;-71
2022/09/02 22:24:03;;;;;;;2.75;1.60;;;;;;;14.83;64.07;100181.72;10541021;28;20078;-71
2022/09/02 22:29:27;;;;;;;2.20;1.20;;;;;;;14.83;63.45;100174.66;10540377;28;20115;-71
2022/09/02 22:34:32;;;;;;;1.92;1.15;;;;;;;14.71;63.10;100169.09;10541806;28;20485;-71
2022/09/02 22:39:51;;;;;;;3.25;1.20;;;;;;;14.62;63.23;100165.94;10522981;28;20513;-71
2022/09/02 22:56:07;;;;;;;1.65;0.82;;;;;;;14.11;66.37;100171.75;10540723;28;20035;-71
2022/09/02 23:01:30;;;;;;;1.95;1.23;;;;;;;14.03;66.04;100150.97;10540941;28;20047;-71
2022/09/02 23:06:32;;;;;;;1.63;1.17;;;;;;;14.01;66.09;100147.50;10540076;28;20054;-72
2022/09/02 23:12:18;;;;;;;2.65;1.20;;;;;;;13.80;67.44;100159.00;10540226;28;20047;-71
2022/09/02 23:17:24;;;;;;;;;;;;;;;13.78;67.81;100148.53;10539917;28;20211;-70
2022/09/02 23:22:40;;;;;;;2.33;1.00;;;;;;;13.83;67.68;100153.59;10541404;28;19920;-71
2022/09/02 23:28:05;;;;;;;2.65;1.30;;;;;;;13.69;69.03;100153.34;10544047;28;20047;-71
2022/09/02 23:33:26;;;;;;;2.00;1.40;;;;;;;13.53;71.26;100159.25;10494081;28;20149;-71
2022/09/02 23:38:53;;;;;;;1.58;1.48;;;;;;;13.56;71.29;100147.72;10546894;28;20032;-71
2022/09/02 23:43:54;;;;;;;3.17;1.33;;;;;;;13.72;71.43;100147.91;10546299;28;20044;-71
2022/09/02 23:49:21;;;;;;;1.35;1.10;;;;;;;13.92;69.58;100137.34;10546207;28;20036;-71
2022/09/02 23:54:42;;;;;;;1.90;1.10;;;;;;;13.82;70.00;100136.91;10501261;28;20056;-70
